createdAt,value
2017-05-13T00:00:17.597Z,935.1
2017-05-13T00:01:25.740Z,935.1
2017-05-13T00:02:33.772Z,935.2
2017-05-13T00:03:41.860Z,935.2
2017-05-13T00:04:49.950Z,935.2
2017-05-13T00:05:58.035Z,935.1
2017-05-13T00:07:06.243Z,935.2
2017-05-13T00:08:14.208Z,935.2
2017-05-13T00:09:22.498Z,935.2
2017-05-13T00:10:30.382Z,935.2
2017-05-13T00:11:38.469Z,935.2
2017-05-13T00:12:46.679Z,935.2
2017-05-13T00:13:54.648Z,935.2
2017-05-13T00:15:02.872Z,935.2
2017-05-13T00:16:10.833Z,935.2
2017-05-13T00:17:18.920Z,935.2
2017-05-13T00:18:27.064Z,935.3
2017-05-13T00:19:35.092Z,935.3
2017-05-13T00:20:43.186Z,935.3
2017-05-13T00:21:51.273Z,935.3
2017-05-13T00:22:59.362Z,935.3
2017-05-13T00:24:07.503Z,935.3
2017-05-13T00:25:15.536Z,935.3
2017-05-13T00:26:23.751Z,935.3
2017-05-13T00:27:31.738Z,935.2
2017-05-13T00:28:39.800Z,935.3
2017-05-13T00:29:48.007Z,935.3
2017-05-13T00:30:56.099Z,935.3
2017-05-13T00:32:04.063Z,935.3
2017-05-13T00:33:12.173Z,935.2
2017-05-13T00:34:20.236Z,935.2
2017-05-13T00:35:28.378Z,935.3
2017-05-13T00:36:36.410Z,935.2
2017-05-13T00:37:44.812Z,935.2
2017-05-13T00:38:52.583Z,935.3
2017-05-13T00:40:01.071Z,935.3
2017-05-13T00:41:08.878Z,935.3
2017-05-13T00:42:16.847Z,935.3
2017-05-13T00:43:25.042Z,935.3
2017-05-13T00:44:33.144Z,935.3
2017-05-13T00:45:41.109Z,935.3
2017-05-13T00:46:49.316Z,935.3
2017-05-13T00:47:57.284Z,935.3
2017-05-13T00:49:05.382Z,935.3
2017-05-13T00:50:13.493Z,935.4
2017-05-13T00:51:21.550Z,935.3
2017-05-13T00:52:29.753Z,935.3
2017-05-13T00:53:37.723Z,935.4
2017-05-13T00:54:45.810Z,935.4
2017-05-13T00:55:53.898Z,935.3
2017-05-13T00:57:01.986Z,935.4
2017-05-13T00:58:10.193Z,935.4
2017-05-13T00:59:18.170Z,935.3
2017-05-13T01:00:26.442Z,935.4
2017-05-13T01:01:34.334Z,935.3
2017-05-13T01:02:42.494Z,935.4
2017-05-13T01:03:50.630Z,935.4
2017-05-13T01:04:58.609Z,935.4
2017-05-13T01:06:06.684Z,935.4
2017-05-13T01:07:14.799Z,935.5
2017-05-13T01:08:22.864Z,935.4
2017-05-13T01:09:31.072Z,935.5
2017-05-13T01:10:39.034Z,935.5
2017-05-13T01:11:47.126Z,935.5
2017-05-13T01:12:55.224Z,935.5
2017-05-13T01:14:03.320Z,935.5
2017-05-13T01:15:11.506Z,935.5
2017-05-13T01:16:19.475Z,935.5
2017-05-13T01:17:27.558Z,935.5
2017-05-13T01:18:35.708Z,935.5
2017-05-13T01:19:43.735Z,935.6
2017-05-13T01:20:51.941Z,935.5
2017-05-13T01:21:59.907Z,935.6
2017-05-13T01:23:07.998Z,935.6
2017-05-13T01:24:16.200Z,935.5
2017-05-13T01:25:24.171Z,935.5
2017-05-13T01:26:32.379Z,935.6
2017-05-13T01:27:40.348Z,935.6
2017-05-13T01:28:48.435Z,935.6
2017-05-13T01:29:56.520Z,935.6
2017-05-13T01:31:04.617Z,935.6
2017-05-13T01:32:12.750Z,935.6
2017-05-13T01:33:20.785Z,935.7
2017-05-13T01:34:29.164Z,935.6
2017-05-13T01:35:37.136Z,935.6
2017-05-13T01:36:45.050Z,935.6
2017-05-13T01:37:53.261Z,935.6
2017-05-13T01:39:01.225Z,935.6
2017-05-13T01:40:09.311Z,935.6
2017-05-13T01:41:17.480Z,935.6
2017-05-13T01:42:25.486Z,935.6
2017-05-13T01:43:33.627Z,935.6
2017-05-13T01:44:41.659Z,935.6
2017-05-13T01:45:49.751Z,935.6
2017-05-13T01:46:57.833Z,935.6
2017-05-13T01:48:05.926Z,935.6
2017-05-13T01:49:14.130Z,935.7
2017-05-13T01:50:22.219Z,935.7
2017-05-13T01:51:30.331Z,935.7
2017-05-13T01:52:38.414Z,935.7
2017-05-13T01:53:46.363Z,935.7
2017-05-13T01:54:54.506Z,935.7
2017-05-13T01:56:02.537Z,935.7
2017-05-13T01:57:10.624Z,935.7
2017-05-13T01:58:18.709Z,935.7
2017-05-13T01:59:26.799Z,935.7
2017-05-13T02:00:35.007Z,935.8
2017-05-13T02:01:42.991Z,935.8
2017-05-13T02:02:51.067Z,935.8
2017-05-13T02:03:59.161Z,935.8
2017-05-13T02:05:07.246Z,935.8
2017-05-13T02:06:15.450Z,935.8
2017-05-13T02:07:23.424Z,935.8
2017-05-13T02:08:31.603Z,935.8
2017-05-13T02:09:39.689Z,935.8
2017-05-13T02:10:47.685Z,935.9
2017-05-13T02:11:55.828Z,935.9
2017-05-13T02:13:04.040Z,935.9
2017-05-13T02:14:11.986Z,935.9
2017-05-13T02:15:20.035Z,935.9
2017-05-13T02:16:28.124Z,936.0
2017-05-13T02:17:36.336Z,936.0
2017-05-13T02:18:44.301Z,936.0
2017-05-13T02:19:52.568Z,936.0
2017-05-13T02:21:00.477Z,936.0
2017-05-13T02:22:08.682Z,936.0
2017-05-13T02:23:16.709Z,936.1
2017-05-13T02:24:24.736Z,936.0
2017-05-13T02:25:32.825Z,936.1
2017-05-13T02:26:40.914Z,936.1
2017-05-13T02:27:48.998Z,936.1
2017-05-13T02:28:57.209Z,936.1
2017-05-13T02:30:05.357Z,936.1
2017-05-13T02:31:13.263Z,936.1
2017-05-13T02:32:21.354Z,936.1
2017-05-13T02:33:29.445Z,936.1
2017-05-13T02:34:37.652Z,936.1
2017-05-13T02:35:45.619Z,936.1
2017-05-13T02:36:53.751Z,936.1
2017-05-13T02:38:01.850Z,936.1
2017-05-13T02:39:09.883Z,936.1
2017-05-13T02:40:18.100Z,936.1
2017-05-13T02:41:26.060Z,936.1
2017-05-13T02:42:34.176Z,936.1
2017-05-13T02:43:42.269Z,936.1
2017-05-13T02:44:50.322Z,936.1
2017-05-13T02:45:58.531Z,936.1
2017-05-13T02:47:06.634Z,936.1
2017-05-13T02:48:14.584Z,936.2
2017-05-13T02:49:22.671Z,936.1
2017-05-13T02:50:30.759Z,936.2
2017-05-13T02:51:38.905Z,936.2
2017-05-13T02:52:46.935Z,936.2
2017-05-13T02:53:55.310Z,936.2
2017-05-13T02:55:03.111Z,936.2
2017-05-13T02:56:11.197Z,936.2
2017-05-13T02:57:19.352Z,936.2
2017-05-13T02:58:27.372Z,936.1
2017-05-13T02:59:35.544Z,936.2
2017-05-13T03:00:43.649Z,936.1
2017-05-13T03:01:51.636Z,936.2
2017-05-13T03:02:59.844Z,936.2
2017-05-13T03:04:07.810Z,936.2
2017-05-13T03:05:15.896Z,936.2
2017-05-13T03:06:24.054Z,936.2
2017-05-13T03:07:32.076Z,936.3
2017-05-13T03:08:40.284Z,936.2
2017-05-13T03:09:48.367Z,936.2
2017-05-13T03:10:56.339Z,936.2
2017-05-13T03:12:04.425Z,936.3
2017-05-13T03:13:12.517Z,936.3
2017-05-13T03:14:20.660Z,936.3
2017-05-13T03:15:28.692Z,936.3
2017-05-13T03:16:36.798Z,936.3
2017-05-13T03:17:44.892Z,936.3
2017-05-13T03:18:52.957Z,936.2
2017-05-13T03:20:01.171Z,936.2
2017-05-13T03:21:09.160Z,936.2
2017-05-13T03:22:17.237Z,936.2
2017-05-13T03:23:25.340Z,936.2
2017-05-13T03:24:33.392Z,936.2
2017-05-13T03:25:41.605Z,936.2
2017-05-13T03:26:49.567Z,936.2
2017-05-13T03:27:57.656Z,936.2
2017-05-13T03:29:05.742Z,936.3
2017-05-13T03:30:13.837Z,936.3
2017-05-13T03:31:21.978Z,936.3
2017-05-13T03:32:30.018Z,936.3
2017-05-13T03:33:38.226Z,936.3
2017-05-13T03:34:46.312Z,936.4
2017-05-13T03:35:54.284Z,936.3
2017-05-13T03:37:02.489Z,936.4
2017-05-13T03:38:10.456Z,936.3
2017-05-13T03:39:18.540Z,936.4
2017-05-13T03:40:26.744Z,936.3
2017-05-13T03:41:34.843Z,936.4
2017-05-13T03:42:42.865Z,936.4
2017-05-13T03:43:50.892Z,936.4
2017-05-13T03:44:58.978Z,936.4
2017-05-13T03:46:07.067Z,936.3
2017-05-13T03:47:15.156Z,936.3
2017-05-13T03:48:23.367Z,936.3
2017-05-13T03:49:31.333Z,936.3
2017-05-13T03:50:39.607Z,936.3
2017-05-13T03:51:47.688Z,936.4
2017-05-13T03:52:55.607Z,936.4
2017-05-13T03:54:03.809Z,936.4
2017-05-13T03:55:11.778Z,936.4
2017-05-13T03:56:19.868Z,936.4
2017-05-13T03:57:28.089Z,936.4
2017-05-13T03:58:36.036Z,936.5
2017-05-13T03:59:44.246Z,936.5
2017-05-13T04:00:52.211Z,936.5
2017-05-13T04:02:00.298Z,936.5
2017-05-13T04:03:08.387Z,936.5
2017-05-13T04:04:16.477Z,936.6
2017-05-13T04:05:24.682Z,936.5
2017-05-13T04:06:32.649Z,936.6
2017-05-13T04:07:40.797Z,936.5
2017-05-13T04:08:48.910Z,936.6
2017-05-13T04:09:56.909Z,936.5
2017-05-13T04:11:05.118Z,936.5
2017-05-13T04:12:13.086Z,936.6
2017-05-13T04:13:21.292Z,936.6
2017-05-13T04:14:29.348Z,936.6
2017-05-13T04:15:37.345Z,936.5
2017-05-13T04:16:45.491Z,936.5
2017-05-13T04:17:53.519Z,936.6
2017-05-13T04:19:01.614Z,936.5
2017-05-13T04:20:09.701Z,936.6
2017-05-13T04:21:17.785Z,936.6
2017-05-13T04:22:26.001Z,936.5
2017-05-13T04:23:33.959Z,936.5
2017-05-13T04:24:42.224Z,936.5
2017-05-13T04:25:50.309Z,936.6
2017-05-13T04:26:58.218Z,936.7
2017-05-13T04:28:06.429Z,936.7
2017-05-13T04:29:14.513Z,936.7
2017-05-13T04:30:22.479Z,936.7
2017-05-13T04:31:30.648Z,936.7
2017-05-13T04:32:38.653Z,936.8
2017-05-13T04:33:46.796Z,936.7
2017-05-13T04:34:54.826Z,936.8
2017-05-13T04:36:02.913Z,936.8
2017-05-13T04:37:10.999Z,936.8
2017-05-13T04:38:19.093Z,936.8
2017-05-13T04:39:27.298Z,936.8
2017-05-13T04:40:35.315Z,936.8
2017-05-13T04:41:43.541Z,936.9
2017-05-13T04:42:51.446Z,936.8
2017-05-13T04:43:59.529Z,936.9
2017-05-13T04:45:07.739Z,936.9
2017-05-13T04:46:15.702Z,936.9
2017-05-13T04:47:23.793Z,937.0
2017-05-13T04:48:31.876Z,937.0
2017-05-13T04:49:39.967Z,937.0
2017-05-13T04:50:48.110Z,937.0
2017-05-13T04:51:56.137Z,937.0
2017-05-13T04:53:04.228Z,937.0
2017-05-13T04:54:12.368Z,937.0
2017-05-13T04:55:20.474Z,937.0
2017-05-13T04:56:28.609Z,937.0
2017-05-13T04:57:36.577Z,937.0
2017-05-13T04:58:45.305Z,937.0
2017-05-13T04:59:52.754Z,937.0
2017-05-13T05:01:00.957Z,937.0
2017-05-13T05:02:08.981Z,937.0
2017-05-13T05:03:17.013Z,937.0
2017-05-13T05:04:25.102Z,937.0
2017-05-13T05:05:33.362Z,937.0
2017-05-13T05:06:41.309Z,937.1
2017-05-13T05:07:49.684Z,937.1
2017-05-13T05:08:57.461Z,937.1
2017-05-13T05:10:05.542Z,937.1
2017-05-13T05:11:13.719Z,937.1
2017-05-13T05:12:21.717Z,937.1
2017-05-13T05:13:29.863Z,937.1
2017-05-13T05:14:37.892Z,937.1
2017-05-13T05:15:45.980Z,937.2
2017-05-13T05:16:54.197Z,937.1
2017-05-13T05:18:02.164Z,937.2
2017-05-13T05:19:10.756Z,937.2
2017-05-13T05:20:18.325Z,937.2
2017-05-13T05:21:26.416Z,937.2
2017-05-13T05:22:34.499Z,937.2
2017-05-13T05:23:42.588Z,937.2
2017-05-13T05:24:50.732Z,937.2
2017-05-13T05:25:58.760Z,937.2
2017-05-13T05:27:06.846Z,937.2
2017-05-13T05:28:14.933Z,937.2
2017-05-13T05:29:23.018Z,937.2
2017-05-13T05:30:31.225Z,937.2
2017-05-13T05:31:39.190Z,937.2
2017-05-13T05:32:47.406Z,937.3
2017-05-13T05:33:55.370Z,937.3
2017-05-13T05:35:03.579Z,937.3
2017-05-13T05:36:11.660Z,937.3
2017-05-13T05:37:19.631Z,937.3
2017-05-13T05:38:27.717Z,937.3
2017-05-13T05:39:35.802Z,937.3
2017-05-13T05:40:43.889Z,937.4
2017-05-13T05:41:52.099Z,937.4
2017-05-13T05:43:00.062Z,937.4
2017-05-13T05:44:08.149Z,937.4
2017-05-13T05:45:16.235Z,937.4
2017-05-13T05:46:24.321Z,937.4
2017-05-13T05:47:32.594Z,937.4
2017-05-13T05:48:40.880Z,937.4
2017-05-13T05:49:48.587Z,937.4
2017-05-13T05:50:56.666Z,937.4
2017-05-13T05:52:05.123Z,937.5
2017-05-13T05:53:12.958Z,937.4
2017-05-13T05:54:20.925Z,937.4
2017-05-13T05:55:29.012Z,937.4
2017-05-13T05:56:37.099Z,937.4
2017-05-13T05:57:45.261Z,937.4
2017-05-13T05:58:53.490Z,937.5
2017-05-13T06:00:01.393Z,937.5
2017-05-13T06:01:09.918Z,937.5
2017-05-13T06:02:17.671Z,937.5
2017-05-13T06:03:25.619Z,937.5
2017-05-13T06:04:33.825Z,937.5
2017-05-13T06:05:41.793Z,937.5
2017-05-13T06:06:49.904Z,937.5
2017-05-13T06:07:57.963Z,937.5
2017-05-13T06:09:06.421Z,937.6
2017-05-13T06:10:14.204Z,937.5
2017-05-13T06:11:22.233Z,937.5
2017-05-13T06:12:30.332Z,937.6
2017-05-13T06:13:38.990Z,937.6
2017-05-13T06:14:46.540Z,937.6
2017-05-13T06:15:54.751Z,937.6
2017-05-13T06:17:02.662Z,937.6
2017-05-13T06:18:10.767Z,937.6
2017-05-13T06:19:18.840Z,937.6
2017-05-13T06:20:27.049Z,937.6
2017-05-13T06:21:35.075Z,937.7
2017-05-13T06:22:43.102Z,937.7
2017-05-13T06:23:51.254Z,937.7
2017-05-13T06:24:59.683Z,937.7
2017-05-13T06:26:07.489Z,937.7
2017-05-13T06:27:15.566Z,937.7
2017-05-13T06:28:24.050Z,937.7
2017-05-13T06:29:31.937Z,937.7
2017-05-13T06:30:39.845Z,937.7
2017-05-13T06:31:47.795Z,937.7
2017-05-13T06:32:56.004Z,937.7
2017-05-13T06:34:03.965Z,937.7
2017-05-13T06:35:12.101Z,937.8
2017-05-13T06:36:21.088Z,937.8
2017-05-13T06:37:28.223Z,937.8
2017-05-13T06:38:36.440Z,937.8
2017-05-13T06:39:45.028Z,937.8
2017-05-13T06:40:52.489Z,937.8
2017-05-13T06:42:00.574Z,937.9
2017-05-13T06:43:08.783Z,937.8
2017-05-13T06:44:16.865Z,937.8
2017-05-13T06:45:24.830Z,937.9
2017-05-13T06:46:32.920Z,937.9
2017-05-13T06:47:41.206Z,937.9
2017-05-13T06:48:49.099Z,937.9
2017-05-13T06:49:57.302Z,938.0
2017-05-13T06:51:05.376Z,938.0
2017-05-13T06:52:13.475Z,938.0
2017-05-13T06:53:21.455Z,938.0
2017-05-13T06:54:29.524Z,937.9
2017-05-13T06:55:37.730Z,937.9
2017-05-13T06:56:45.711Z,937.9
2017-05-13T06:57:53.782Z,937.9
2017-05-13T06:59:01.872Z,937.9
2017-05-13T07:00:09.956Z,937.9
2017-05-13T07:01:18.165Z,937.9
2017-05-13T07:02:26.133Z,938.0
2017-05-13T07:03:34.216Z,937.9
2017-05-13T07:04:42.306Z,937.9
2017-05-13T07:05:50.390Z,938.0
2017-05-13T07:06:58.533Z,938.0
2017-05-13T07:08:06.802Z,938.0
2017-05-13T07:09:14.644Z,938.0
2017-05-13T07:10:22.733Z,938.1
2017-05-13T07:11:30.819Z,938.1
2017-05-13T07:12:39.030Z,938.1
2017-05-13T07:13:47.017Z,938.2
2017-05-13T07:14:55.099Z,938.2
2017-05-13T07:16:03.169Z,938.1
2017-05-13T07:17:11.255Z,938.1
2017-05-13T07:18:19.398Z,938.2
2017-05-13T07:19:27.436Z,938.2
2017-05-13T07:20:35.518Z,938.2
2017-05-13T07:21:43.607Z,938.3
2017-05-13T07:22:51.691Z,938.2
2017-05-13T07:23:59.897Z,938.3
2017-05-13T07:25:08.009Z,938.2
2017-05-13T07:26:15.953Z,938.3
2017-05-13T07:27:24.037Z,938.3
2017-05-13T07:28:32.125Z,938.4
2017-05-13T07:29:40.333Z,938.4
2017-05-13T07:30:48.319Z,938.4
2017-05-13T07:31:56.406Z,938.3
2017-05-13T07:33:04.468Z,938.4
2017-05-13T07:34:12.553Z,938.4
2017-05-13T07:35:20.763Z,938.4
2017-05-13T07:36:28.730Z,938.4
2017-05-13T07:37:36.819Z,938.4
2017-05-13T07:38:44.910Z,938.4
2017-05-13T07:39:53.114Z,938.4
2017-05-13T07:41:01.201Z,938.5
2017-05-13T07:42:09.269Z,938.5
2017-05-13T07:43:17.249Z,938.5
2017-05-13T07:44:25.336Z,938.5
2017-05-13T07:45:33.424Z,938.5
2017-05-13T07:46:41.606Z,938.6
2017-05-13T07:47:49.600Z,938.6
2017-05-13T07:48:57.692Z,938.6
2017-05-13T07:50:06.006Z,938.6
2017-05-13T07:51:13.954Z,938.6
2017-05-13T07:52:22.756Z,938.6
2017-05-13T07:53:30.177Z,938.6
2017-05-13T07:54:38.121Z,938.7
2017-05-13T07:55:47.761Z,938.7
2017-05-13T07:56:54.296Z,938.6
2017-05-13T07:58:02.438Z,938.6
2017-05-13T07:59:10.485Z,938.6
2017-05-13T08:00:18.556Z,938.7
2017-05-13T08:01:26.642Z,938.7
2017-05-13T08:02:34.724Z,938.7
2017-05-13T08:03:42.936Z,938.6
2017-05-13T08:04:51.012Z,938.7
2017-05-13T08:05:58.984Z,938.7
2017-05-13T08:07:07.071Z,938.7
2017-05-13T08:08:15.158Z,938.7
2017-05-13T08:09:23.302Z,938.7
2017-05-13T08:10:31.434Z,938.7
2017-05-13T08:11:39.535Z,938.7
2017-05-13T08:12:47.508Z,938.7
2017-05-13T08:13:55.592Z,938.8
2017-05-13T08:15:03.801Z,938.7
2017-05-13T08:16:11.773Z,938.7
2017-05-13T08:17:19.860Z,938.7
2017-05-13T08:18:27.955Z,938.7
2017-05-13T08:19:36.037Z,938.8
2017-05-13T08:20:44.314Z,938.7
2017-05-13T08:21:52.236Z,938.8
2017-05-13T08:23:00.293Z,938.9
2017-05-13T08:24:08.381Z,938.9
2017-05-13T08:25:16.462Z,938.9
2017-05-13T08:26:24.612Z,938.9
2017-05-13T08:27:32.721Z,938.9
2017-05-13T08:28:40.726Z,938.9
2017-05-13T08:29:48.813Z,938.9
2017-05-13T08:30:56.899Z,938.9
2017-05-13T08:32:05.101Z,938.9
2017-05-13T08:33:13.071Z,938.9
2017-05-13T08:34:21.156Z,938.9
2017-05-13T08:35:29.243Z,938.9
2017-05-13T08:36:37.328Z,938.9
2017-05-13T08:37:45.662Z,939.0
2017-05-13T08:38:53.554Z,938.9
2017-05-13T08:40:01.587Z,938.9
2017-05-13T08:41:09.680Z,938.9
2017-05-13T08:42:17.761Z,939.0
2017-05-13T08:43:25.969Z,939.0
2017-05-13T08:44:33.936Z,939.0
2017-05-13T08:45:42.026Z,939.0
2017-05-13T08:46:50.108Z,939.0
2017-05-13T08:47:58.194Z,939.0
2017-05-13T08:49:06.400Z,939.0
2017-05-13T08:50:14.372Z,939.0
2017-05-13T08:51:22.461Z,939.0
2017-05-13T08:52:30.548Z,939.1
2017-05-13T08:53:38.630Z,939.0
2017-05-13T08:54:46.883Z,939.1
2017-05-13T08:55:54.863Z,939.1
2017-05-13T08:57:02.900Z,939.1
2017-05-13T08:58:10.984Z,939.1
2017-05-13T08:59:19.126Z,939.1
2017-05-13T09:00:27.280Z,939.1
2017-05-13T09:01:35.304Z,939.1
2017-05-13T09:02:43.375Z,939.1
2017-05-13T09:03:51.436Z,939.1
2017-05-13T09:04:59.525Z,939.1
2017-05-13T09:06:07.730Z,939.1
2017-05-13T09:07:15.672Z,939.1
2017-05-13T09:08:23.774Z,939.1
2017-05-13T09:09:31.870Z,939.0
2017-05-13T09:10:39.935Z,939.1
2017-05-13T09:11:48.258Z,939.0
2017-05-13T09:12:56.152Z,939.0
2017-05-13T09:14:04.194Z,939.1
2017-05-13T09:15:12.335Z,939.1
2017-05-13T09:16:20.363Z,939.1
2017-05-13T09:17:28.574Z,939.1
2017-05-13T09:18:36.564Z,939.1
2017-05-13T09:19:44.650Z,939.1
2017-05-13T09:20:52.711Z,939.1
2017-05-13T09:22:00.795Z,939.1
2017-05-13T09:23:08.944Z,939.2
2017-05-13T09:24:16.968Z,939.2
2017-05-13T09:25:25.059Z,939.2
2017-05-13T09:26:33.142Z,939.2
2017-05-13T09:27:41.232Z,939.3
2017-05-13T09:28:49.547Z,939.2
2017-05-13T09:29:57.416Z,939.3
2017-05-13T09:31:05.543Z,939.2
2017-05-13T09:32:13.572Z,939.2
2017-05-13T09:33:21.666Z,939.2
2017-05-13T09:34:29.868Z,939.2
2017-05-13T09:35:37.837Z,939.2
2017-05-13T09:36:45.922Z,939.2
2017-05-13T09:37:54.003Z,939.2
2017-05-13T09:39:02.087Z,939.2
2017-05-13T09:40:10.299Z,939.2
2017-05-13T09:41:18.263Z,939.2
2017-05-13T09:42:26.354Z,939.2
2017-05-13T09:43:34.435Z,939.1
2017-05-13T09:44:42.520Z,939.1
2017-05-13T09:45:50.851Z,939.1
2017-05-13T09:46:58.859Z,939.1
2017-05-13T09:48:06.779Z,939.1
2017-05-13T09:49:14.866Z,939.1
2017-05-13T09:50:22.959Z,939.1
2017-05-13T09:51:31.101Z,939.0
2017-05-13T09:52:39.168Z,939.0
2017-05-13T09:53:47.226Z,939.1
2017-05-13T09:54:55.305Z,939.1
2017-05-13T09:56:03.433Z,939.1
2017-05-13T09:57:11.596Z,939.1
2017-05-13T09:58:19.561Z,939.1
2017-05-13T09:59:27.652Z,939.1
2017-05-13T10:00:35.736Z,939.1
2017-05-13T10:01:43.820Z,939.1
2017-05-13T10:02:52.143Z,939.1
2017-05-13T10:04:00.005Z,939.1
2017-05-13T10:05:08.083Z,939.1
2017-05-13T10:06:16.167Z,939.1
2017-05-13T10:07:24.260Z,939.1
2017-05-13T10:08:32.462Z,939.1
2017-05-13T10:09:40.439Z,939.1
2017-05-13T10:10:48.521Z,939.1
2017-05-13T10:11:56.605Z,939.1
2017-05-13T10:13:04.687Z,939.1
2017-05-13T10:14:12.961Z,939.2
2017-05-13T10:15:20.860Z,939.2
2017-05-13T10:16:28.954Z,939.2
2017-05-13T10:17:37.033Z,939.2
2017-05-13T10:18:45.243Z,939.2
2017-05-13T10:19:53.320Z,939.2
2017-05-13T10:21:01.353Z,939.2
2017-05-13T10:22:09.382Z,939.2
2017-05-13T10:23:17.471Z,939.2
2017-05-13T10:24:25.555Z,939.2
2017-05-13T10:25:33.764Z,939.2
2017-05-13T10:26:41.733Z,939.3
2017-05-13T10:27:49.819Z,939.3
2017-05-13T10:28:57.903Z,939.2
2017-05-13T10:30:05.990Z,939.2
2017-05-13T10:31:14.343Z,939.2
2017-05-13T10:32:22.160Z,939.2
2017-05-13T10:33:30.247Z,939.2
2017-05-13T10:34:38.456Z,939.2
2017-05-13T10:35:46.422Z,939.1
2017-05-13T10:36:54.599Z,939.2
2017-05-13T10:38:02.628Z,939.1
2017-05-13T10:39:10.680Z,939.1
2017-05-13T10:40:18.772Z,939.1
2017-05-13T10:41:26.856Z,939.1
2017-05-13T10:42:35.063Z,939.1
2017-05-13T10:43:43.031Z,939.1
2017-05-13T10:44:51.116Z,939.1
2017-05-13T10:45:59.213Z,939.1
2017-05-13T10:47:07.304Z,939.1
2017-05-13T10:48:15.618Z,939.0
2017-05-13T10:49:23.477Z,939.0
2017-05-13T10:50:31.690Z,939.0
2017-05-13T10:51:39.648Z,939.0
2017-05-13T10:52:47.739Z,939.0
2017-05-13T10:53:55.944Z,939.0
2017-05-13T10:55:03.910Z,939.0
2017-05-13T10:56:11.996Z,939.0
2017-05-13T10:57:20.087Z,939.0
2017-05-13T10:58:28.169Z,939.0
2017-05-13T10:59:36.382Z,939.0
2017-05-13T11:00:44.350Z,939.0
2017-05-13T11:01:52.430Z,939.0
2017-05-13T11:03:00.515Z,939.0
2017-05-13T11:04:08.607Z,939.0
2017-05-13T11:05:16.956Z,939.0
2017-05-13T11:06:24.897Z,939.0
2017-05-13T11:07:32.867Z,939.0
2017-05-13T11:08:40.955Z,938.9
2017-05-13T11:09:49.050Z,939.0
2017-05-13T11:10:57.274Z,939.0
2017-05-13T11:12:05.247Z,939.0
2017-05-13T11:13:13.309Z,939.0
2017-05-13T11:14:21.397Z,939.0
2017-05-13T11:15:29.481Z,939.0
2017-05-13T11:16:37.689Z,939.0
2017-05-13T11:17:45.657Z,939.0
2017-05-13T11:18:53.745Z,939.0
2017-05-13T11:20:01.828Z,939.0
2017-05-13T11:21:09.920Z,939.0
2017-05-13T11:22:18.214Z,939.0
2017-05-13T11:23:26.095Z,939.0
2017-05-13T11:24:34.178Z,939.0
2017-05-13T11:25:42.262Z,938.9
2017-05-13T11:26:50.350Z,938.9
2017-05-13T11:27:58.558Z,938.9
2017-05-13T11:29:06.525Z,938.9
2017-05-13T11:30:14.620Z,938.9
2017-05-13T11:31:22.703Z,938.8
2017-05-13T11:32:30.810Z,938.9
2017-05-13T11:33:39.133Z,938.9
2017-05-13T11:34:46.967Z,938.9
2017-05-13T11:35:55.056Z,938.9
2017-05-13T11:37:03.141Z,938.9
2017-05-13T11:38:11.350Z,938.9
2017-05-13T11:39:19.382Z,938.9
2017-05-13T11:40:27.401Z,938.9
2017-05-13T11:41:35.490Z,938.9
2017-05-13T11:42:43.576Z,939.0
2017-05-13T11:43:51.663Z,938.9
2017-05-13T11:44:59.880Z,938.9
2017-05-13T11:46:07.836Z,939.0
2017-05-13T11:47:15.923Z,939.0
2017-05-13T11:48:24.012Z,939.0
2017-05-13T11:49:32.204Z,939.0
2017-05-13T11:50:40.408Z,939.0
2017-05-13T11:51:48.274Z,939.1
2017-05-13T11:52:56.360Z,939.0
2017-05-13T11:54:04.506Z,939.0
2017-05-13T11:55:12.532Z,939.0
2017-05-13T11:56:20.751Z,939.0
2017-05-13T11:57:28.708Z,939.0
2017-05-13T11:58:36.794Z,939.0
2017-05-13T11:59:44.881Z,939.0
2017-05-13T12:00:52.972Z,938.9
2017-05-13T12:02:01.178Z,939.0
2017-05-13T12:03:09.140Z,939.0
2017-05-13T12:04:17.228Z,939.0
2017-05-13T12:05:25.312Z,938.9
2017-05-13T12:06:33.479Z,939.0
2017-05-13T12:07:41.689Z,939.0
2017-05-13T12:08:49.574Z,939.1
2017-05-13T12:09:57.784Z,939.0
2017-05-13T12:11:05.747Z,939.1
2017-05-13T12:12:13.833Z,939.1
2017-05-13T12:13:22.041Z,939.1
2017-05-13T12:14:30.005Z,939.1
2017-05-13T12:15:38.093Z,939.1
2017-05-13T12:16:46.182Z,939.1
2017-05-13T12:17:54.437Z,939.1
2017-05-13T12:19:02.478Z,939.2
2017-05-13T12:20:10.442Z,939.1
2017-05-13T12:21:18.530Z,939.2
2017-05-13T12:22:26.623Z,939.2
2017-05-13T12:23:34.701Z,939.2
2017-05-13T12:24:42.886Z,939.3
2017-05-13T12:25:50.991Z,939.2
2017-05-13T12:26:58.999Z,939.2
2017-05-13T12:28:07.223Z,939.2
2017-05-13T12:29:15.319Z,939.2
2017-05-13T12:30:23.277Z,939.2
2017-05-13T12:31:31.318Z,939.2
2017-05-13T12:32:39.483Z,939.2
2017-05-13T12:33:47.481Z,939.2
2017-05-13T12:34:55.643Z,939.2
2017-05-13T12:36:03.774Z,939.2
2017-05-13T12:37:11.742Z,939.2
2017-05-13T12:38:19.829Z,939.2
2017-05-13T12:39:27.918Z,939.1
2017-05-13T12:40:36.004Z,939.2
2017-05-13T12:41:44.208Z,939.2
2017-05-13T12:42:52.174Z,939.2
2017-05-13T12:44:00.272Z,939.2
2017-05-13T12:45:08.467Z,939.2
2017-05-13T12:46:16.702Z,939.2
2017-05-13T12:47:24.645Z,939.2
2017-05-13T12:48:32.618Z,939.2
2017-05-13T12:49:40.745Z,939.3
2017-05-13T12:50:48.781Z,939.3
2017-05-13T12:51:56.886Z,939.3
2017-05-13T12:53:05.073Z,939.3
2017-05-13T12:54:13.038Z,939.2
2017-05-13T12:55:21.125Z,939.2
2017-05-13T12:56:29.214Z,939.2
2017-05-13T12:57:37.356Z,939.2
2017-05-13T12:58:45.509Z,939.2
2017-05-13T12:59:53.475Z,939.2
2017-05-13T13:01:01.559Z,939.2
2017-05-13T13:02:09.718Z,939.2
2017-05-13T13:03:18.046Z,939.2
2017-05-13T13:04:26.001Z,939.2
2017-05-13T13:05:34.050Z,939.2
2017-05-13T13:06:42.356Z,939.2
2017-05-13T13:07:50.097Z,939.1
2017-05-13T13:08:58.352Z,939.1
2017-05-13T13:10:06.393Z,939.1
2017-05-13T13:11:14.360Z,939.1
2017-05-13T13:12:22.450Z,939.1
2017-05-13T13:13:30.652Z,939.1
2017-05-13T13:14:38.624Z,939.1
2017-05-13T13:15:46.760Z,939.1
2017-05-13T13:16:54.788Z,939.1
2017-05-13T13:18:02.880Z,939.0
2017-05-13T13:19:10.966Z,939.0
2017-05-13T13:20:19.050Z,939.0
2017-05-13T13:21:27.260Z,939.0
2017-05-13T13:22:35.225Z,939.0
2017-05-13T13:23:43.319Z,939.0
2017-05-13T13:24:51.394Z,939.0
2017-05-13T13:25:59.489Z,939.0
2017-05-13T13:27:07.631Z,939.0
2017-05-13T13:28:15.799Z,939.0
2017-05-13T13:29:23.868Z,939.0
2017-05-13T13:30:31.841Z,939.0
2017-05-13T13:31:39.927Z,939.0
2017-05-13T13:32:48.129Z,939.0
2017-05-13T13:33:56.094Z,939.0
2017-05-13T13:35:04.198Z,939.1
2017-05-13T13:36:12.268Z,939.1
2017-05-13T13:37:20.352Z,939.1
2017-05-13T13:38:28.563Z,939.1
2017-05-13T13:39:36.530Z,939.1
2017-05-13T13:40:44.613Z,939.1
2017-05-13T13:41:52.699Z,939.1
2017-05-13T13:43:00.785Z,939.1
2017-05-13T13:44:08.930Z,939.1
2017-05-13T13:45:17.243Z,939.0
2017-05-13T13:46:25.232Z,939.1
2017-05-13T13:47:33.137Z,939.0
2017-05-13T13:48:41.221Z,939.1
2017-05-13T13:49:49.471Z,939.0
2017-05-13T13:50:57.398Z,939.1
2017-05-13T13:52:05.547Z,939.1
2017-05-13T13:53:13.569Z,939.1
2017-05-13T13:54:21.651Z,939.1
2017-05-13T13:55:29.799Z,939.1
2017-05-13T13:56:37.823Z,939.1
2017-05-13T13:57:45.911Z,939.1
2017-05-13T13:58:54.048Z,939.1
2017-05-13T14:00:02.087Z,939.1
2017-05-13T14:01:10.297Z,939.1
2017-05-13T14:02:18.257Z,939.1
2017-05-13T14:03:26.348Z,939.1
2017-05-13T14:04:34.453Z,939.1
2017-05-13T14:05:42.518Z,939.1
2017-05-13T14:06:50.722Z,939.1
2017-05-13T14:07:58.698Z,939.1
2017-05-13T14:09:06.779Z,939.1
2017-05-13T14:10:14.873Z,939.1
2017-05-13T14:11:22.963Z,939.1
2017-05-13T14:12:31.171Z,939.0
2017-05-13T14:13:39.134Z,939.0
2017-05-13T14:14:47.413Z,939.0
2017-05-13T14:15:55.313Z,939.0
2017-05-13T14:17:03.517Z,939.0
2017-05-13T14:18:11.541Z,939.0
2017-05-13T14:19:19.572Z,939.1
2017-05-13T14:20:27.652Z,939.0
2017-05-13T14:21:35.790Z,939.0
2017-05-13T14:22:43.826Z,939.0
2017-05-13T14:23:52.032Z,939.0
2017-05-13T14:25:00.006Z,939.0
2017-05-13T14:26:08.087Z,939.0
2017-05-13T14:27:16.253Z,938.9
2017-05-13T14:28:24.256Z,938.9
2017-05-13T14:29:32.465Z,938.9
2017-05-13T14:30:40.430Z,938.9
2017-05-13T14:31:48.516Z,938.9
2017-05-13T14:32:56.779Z,938.9
2017-05-13T14:34:04.758Z,938.9
2017-05-13T14:35:12.898Z,939.0
2017-05-13T14:36:20.862Z,938.9